sensor_id;sensor_type;location;lat;lon;timestamp;pressure;altitude;pressure_sealevel;temperature;humidity
7832;BME280;3961;42.058;25.586;2022-12-07T00:01:22;63267.41;;;9.41;100.00
7832;BME280;3961;42.058;25.586;2022-12-07T00:03:49;63309.50;;;9.78;100.00
7832;BME280;3961;42.058;25.586;2022-12-07T00:06:17;63306.41;;;9.73;100.00
7832;BME280;3961;42.058;25.586;2022-12-07T00:08:43;63309.84;;;9.76;100.00
7832;BME280;3961;42.058;25.586;2022-12-07T00:11:11;63311.81;;;9.80;100.00
7832;BME280;3961;42.058;25.586;2022-12-07T00:13:38;63310.66;;;9.79;100.00
7832;BME280;3961;42.058;25.586;2022-12-07T00:16:09;63317.56;;;9.85;100.00
7832;BME280;3961;42.058;25.586;2022-12-07T00:18:36;63339.84;;;10.02;100.00
7832;BME280;3961;42.058;25.586;2022-12-07T00:21:04;63294.28;;;9.62;100.00
7832;BME280;3961;42.058;25.586;2022-12-07T00:23:30;63320.56;;;9.83;100.00
7832;BME280;3961;42.058;25.586;2022-12-07T00:25:55;63312.16;;;9.78;100.00
7832;BME280;3961;42.058;25.586;2022-12-07T00:28:21;63274.06;;;9.44;100.00
7832;BME280;3961;42.058;25.586;2022-12-07T00:30:47;63318.25;;;9.81;100.00
7832;BME280;3961;42.058;25.586;2022-12-07T00:33:12;63320.13;;;9.90;100.00
7832;BME280;3961;42.058;25.586;2022-12-07T00:35:38;63341.34;;;10.01;100.00
7832;BME280;3961;42.058;25.586;2022-12-07T00:38:03;63313.53;;;9.82;100.00
7832;BME280;3961;42.058;25.586;2022-12-07T00:40:29;63313.44;;;9.74;100.00
7832;BME280;3961;42.058;25.586;2022-12-07T00:42:54;63297.75;;;9.65;100.00
7832;BME280;3961;42.058;25.586;2022-12-07T00:45:20;63288.50;;;9.57;100.00
7832;BME280;3961;42.058;25.586;2022-12-07T00:47:45;63313.06;;;9.76;100.00
7832;BME280;3961;42.058;25.586;2022-12-07T00:50:11;63314.47;;;9.80;100.00
7832;BME280;3961;42.058;25.586;2022-12-07T00:52:36;63298.31;;;9.66;100.00
7832;BME280;3961;42.058;25.586;2022-12-07T00:55:02;63285.03;;;9.54;100.00
7832;BME280;3961;42.058;25.586;2022-12-07T00:57:27;63283.53;;;9.55;100.00
7832;BME280;3961;42.058;25.586;2022-12-07T00:59:53;63255.63;;;9.28;100.00
7832;BME280;3961;42.058;25.586;2022-12-07T01:02:23;63284.69;;;9.56;100.00
7832;BME280;3961;42.058;25.586;2022-12-07T01:04:48;63301.19;;;9.68;100.00
7832;BME280;3961;42.058;25.586;2022-12-07T01:07:14;63313.06;;;9.76;100.00
7832;BME280;3961;42.058;25.586;2022-12-07T01:09:39;63318.25;;;9.81;100.00
7832;BME280;3961;42.058;25.586;2022-12-07T01:12:05;63320.56;;;9.83;100.00
7832;BME280;3961;42.058;25.586;2022-12-07T01:14:31;63309.25;;;9.75;100.00
7832;BME280;3961;42.058;25.586;2022-12-07T01:16:56;63306.97;;;9.73;100.00
7832;BME280;3961;42.058;25.586;2022-12-07T01:19:22;63289.56;;;9.63;100.00
7832;BME280;3961;42.058;25.586;2022-12-07T01:21:47;63301.19;;;9.68;100.00
7832;BME280;3961;42.058;25.586;2022-12-07T01:24:13;63311.81;;;9.80;100.00
7832;BME280;3961;42.058;25.586;2022-12-07T01:26:38;63286.44;;;9.58;100.00
7832;BME280;3961;42.058;25.586;2022-12-07T01:29:04;63276.38;;;9.47;100.00
7832;BME280;3961;42.058;25.586;2022-12-07T01:31:30;63280.44;;;9.50;100.00
7832;BME280;3961;42.058;25.586;2022-12-07T01:33:57;63269.81;;;9.38;100.00
7832;BME280;3961;42.058;25.586;2022-12-07T01:36:25;63288.75;;;9.60;100.00
7832;BME280;3961;42.058;25.586;2022-12-07T01:38:55;63310.19;;;9.74;100.00
7832;BME280;3961;42.058;25.586;2022-12-07T01:41:23;63291.06;;;9.62;100.00
7832;BME280;3961;42.058;25.586;2022-12-07T01:47:03;63269.69;;;9.43;100.00
7832;BME280;3961;42.058;25.586;2022-12-07T01:49:34;63279.50;;;9.52;100.00
7832;BME280;3961;42.058;25.586;2022-12-07T01:52:14;63302.69;;;9.67;100.00
7832;BME280;3961;42.058;25.586;2022-12-07T01:54:42;63261.06;;;9.35;100.00
7832;BME280;3961;42.058;25.586;2022-12-07T01:57:08;63289.06;;;9.58;100.00
7832;BME280;3961;42.058;25.586;2022-12-07T01:59:35;63194.88;;;8.72;100.00
7832;BME280;3961;42.058;25.586;2022-12-07T02:02:02;63309.25;;;9.75;100.00
7832;BME280;3961;42.058;25.586;2022-12-07T02:04:29;63309.84;;;9.76;100.00
7832;BME280;3961;42.058;25.586;2022-12-07T02:06:56;63274.31;;;9.47;100.00
7832;BME280;3961;42.058;25.586;2022-12-07T02:09:23;63268.09;;;9.37;100.00
7832;BME280;3961;42.058;25.586;2022-12-07T02:11:49;63268.09;;;9.37;100.00
7832;BME280;3961;42.058;25.586;2022-12-07T02:14:14;63271.75;;;9.42;100.00
7832;BME280;3961;42.058;25.586;2022-12-07T02:20:05;63259.91;;;9.34;100.00
7832;BME280;3961;42.058;25.586;2022-12-07T02:23:04;63268.31;;;9.39;100.00
7832;BME280;3961;42.058;25.586;2022-12-07T02:31:31;63280.44;;;9.50;100.00
7832;BME280;3961;42.058;25.586;2022-12-07T02:36:58;63301.88;;;9.64;100.00
7832;BME280;3961;42.058;25.586;2022-12-07T02:39:52;63305.25;;;9.72;100.00
7832;BME280;3961;42.058;25.586;2022-12-07T02:42:33;63315.03;;;9.81;100.00
7832;BME280;3961;42.058;25.586;2022-12-07T02:45:02;63298.88;;;9.66;100.00
7832;BME280;3961;42.058;25.586;2022-12-07T02:47:31;63304.09;;;9.71;100.00
7832;BME280;3961;42.058;25.586;2022-12-07T02:49:58;63294.84;;;9.63;100.00
7832;BME280;3961;42.058;25.586;2022-12-07T02:52:24;63309.03;;;9.73;100.00
7832;BME280;3961;42.058;25.586;2022-12-07T02:54:49;63314.22;;;9.77;100.00
7832;BME280;3961;42.058;25.586;2022-12-07T03:00:08;63326.91;;;9.89;100.00
7832;BME280;3961;42.058;25.586;2022-12-07T03:02:58;63320.22;;;9.85;100.00
7832;BME280;3961;42.058;25.586;2022-12-07T03:05:54;63315.28;;;9.83;100.00
7832;BME280;3961;42.058;25.586;2022-12-07T03:08:39;63305.59;;;9.70;100.00
7832;BME280;3961;42.058;25.586;2022-12-07T03:11:48;63303.50;;;9.70;100.00
7832;BME280;3961;42.058;25.586;2022-12-07T03:14:20;63297.75;;;9.65;100.00
7832;BME280;3961;42.058;25.586;2022-12-07T03:17:04;63286.78;;;9.56;100.00
7832;BME280;3961;42.058;25.586;2022-12-07T03:19:33;63285.63;;;9.55;100.00
7832;BME280;3961;42.058;25.586;2022-12-07T03:22:03;63300.63;;;9.68;100.00
7832;BME280;3961;42.058;25.586;2022-12-07T03:24:36;63272.59;;;9.46;100.00
7832;BME280;3961;42.058;25.586;2022-12-07T03:27:03;63276.38;;;9.47;100.00
7832;BME280;3961;42.058;25.586;2022-12-07T03:29:34;63279.84;;;9.50;100.00
7832;BME280;3961;42.058;25.586;2022-12-07T03:32:09;63297.50;;;9.63;100.00
7832;BME280;3961;42.058;25.586;2022-12-07T03:37:53;63286.78;;;9.56;100.00
7832;BME280;3961;42.058;25.586;2022-12-07T03:40:29;63299.81;;;9.65;100.00
7832;BME280;3961;42.058;25.586;2022-12-07T03:42:56;63271.22;;;9.42;100.00
7832;BME280;3961;42.058;25.586;2022-12-07T03:45:32;63279.28;;;9.49;100.00
7832;BME280;3961;42.058;25.586;2022-12-07T03:48:07;63280.19;;;9.48;100.00
7832;BME280;3961;42.058;25.586;2022-12-07T03:53:13;63269.94;;;9.46;100.00
7832;BME280;3961;42.058;25.586;2022-12-07T03:55:42;63267.75;;;9.39;100.00
7832;BME280;3961;42.058;25.586;2022-12-07T03:58:12;63278.69;;;9.49;100.00
7832;BME280;3961;42.058;25.586;2022-12-07T04:00:42;63242.94;;;9.17;100.00
7832;BME280;3961;42.058;25.586;2022-12-07T04:03:08;63236.59;;;9.12;100.00
7832;BME280;3961;42.058;25.586;2022-12-07T04:05:35;63258.28;;;9.28;100.00
7832;BME280;3961;42.058;25.586;2022-12-07T04:08:01;63152.94;;;8.43;100.00
7832;BME280;3961;42.058;25.586;2022-12-07T04:10:26;63257.38;;;9.30;100.00
7832;BME280;3961;42.058;25.586;2022-12-07T04:12:52;63246.41;;;9.20;100.00
7832;BME280;3961;42.058;25.586;2022-12-07T04:15:17;63246.97;;;9.21;100.00
7832;BME280;3961;42.058;25.586;2022-12-07T04:17:43;63261.97;;;9.34;100.00
7832;BME280;3961;42.058;25.586;2022-12-07T04:20:09;63257.69;;;9.28;100.00
7832;BME280;3961;42.058;25.586;2022-12-07T04:22:34;63255.28;;;9.30;100.00
7832;BME280;3961;42.058;25.586;2022-12-07T04:25:00;63253.91;;;9.27;100.00
7832;BME280;3961;42.058;25.586;2022-12-07T04:27:26;63263.13;;;9.35;100.00
7832;BME280;3961;42.058;25.586;2022-12-07T04:29:51;63261.41;;;9.33;100.00
7832;BME280;3961;42.058;25.586;2022-12-07T04:32:18;63247.22;;;9.23;100.00
7832;BME280;3961;42.058;25.586;2022-12-07T04:34:43;63247.56;;;9.21;100.00
7832;BME280;3961;42.058;25.586;2022-12-07T04:37:09;63224.50;;;9.01;100.00
7832;BME280;3961;42.058;25.586;2022-12-07T04:39:35;63227.97;;;9.04;100.00
7832;BME280;3961;42.058;25.586;2022-12-07T04:42:01;63240.53;;;9.20;100.00
7832;BME280;3961;42.058;25.586;2022-12-07T04:44:27;63249.06;;;9.20;100.00
7832;BME280;3961;42.058;25.586;2022-12-07T04:46:54;63259.44;;;9.29;100.00
7832;BME280;3961;42.058;25.586;2022-12-07T04:49:20;63222.44;;;9.01;100.00
7832;BME280;3961;42.058;25.586;2022-12-07T04:51:46;63226.91;;;8.98;100.00
7832;BME280;3961;42.058;25.586;2022-12-07T04:54:13;63236.84;;;9.14;100.00
7832;BME280;3961;42.058;25.586;2022-12-07T04:56:39;63206.53;;;8.90;100.00
7832;BME280;3961;42.058;25.586;2022-12-07T04:59:05;63238.66;;;9.11;100.00
7832;BME280;3961;42.058;25.586;2022-12-07T05:01:31;63226.47;;;9.05;100.00
7832;BME280;3961;42.058;25.586;2022-12-07T05:03:57;63235.81;;;9.08;100.00
7832;BME280;3961;42.058;25.586;2022-12-07T05:06:23;63244.00;;;9.23;100.00
7832;BME280;3961;42.058;25.586;2022-12-07T05:08:49;63209.50;;;8.88;100.00
7832;BME280;3961;42.058;25.586;2022-12-07T05:11:15;63226.47;;;9.05;100.00
7832;BME280;3961;42.058;25.586;2022-12-07T05:14:02;63226.91;;;8.98;100.00
7832;BME280;3961;42.058;25.586;2022-12-07T05:16:28;63232.00;;;9.07;100.00
7832;BME280;3961;42.058;25.586;2022-12-07T05:18:54;63223.81;;;9.05;100.00
7832;BME280;3961;42.058;25.586;2022-12-07T05:21:20;63250.19;;;9.21;100.00
7832;BME280;3961;42.058;25.586;2022-12-07T05:23:46;63241.44;;;9.18;100.00
7832;BME280;3961;42.058;25.586;2022-12-07T05:26:11;63217.25;;;8.97;100.00
7832;BME280;3961;42.058;25.586;2022-12-07T05:28:37;63204.06;;;8.81;100.00
7832;BME280;3961;42.058;25.586;2022-12-07T05:31:03;63202.59;;;8.82;100.00
7832;BME280;3961;42.058;25.586;2022-12-07T05:33:29;63205.47;;;8.84;100.00
7832;BME280;3961;42.058;25.586;2022-12-07T05:35:54;63224.84;;;8.99;100.00
7832;BME280;3961;42.058;25.586;2022-12-07T05:38:20;63221.63;;;8.98;100.00
7832;BME280;3961;42.058;25.586;2022-12-07T05:40:45;63203.16;;;8.82;100.00
7832;BME280;3961;42.058;25.586;2022-12-07T05:43:11;63223.94;;;9.00;100.00
7832;BME280;3961;42.058;25.586;2022-12-07T05:45:37;63210.09;;;8.88;100.00
7832;BME280;3961;42.058;25.586;2022-12-07T05:48:02;63218.50;;;8.93;100.00
7832;BME280;3961;42.058;25.586;2022-12-07T05:50:28;63223.94;;;9.00;100.00
7832;BME280;3961;42.058;25.586;2022-12-07T05:52:54;63205.47;;;8.84;100.00
7832;BME280;3961;42.058;25.586;2022-12-07T05:55:19;63208.34;;;8.87;100.00
7832;BME280;3961;42.058;25.586;2022-12-07T05:57:45;63209.16;;;8.90;100.00
7832;BME280;3961;42.058;25.586;2022-12-07T06:00:31;63218.16;;;8.95;100.00
7832;BME280;3961;42.058;25.586;2022-12-07T06:02:57;63208.59;;;8.89;100.00
7832;BME280;3961;42.058;25.586;2022-12-07T06:05:23;63237.16;;;9.12;100.00
7832;BME280;3961;42.058;25.586;2022-12-07T06:07:49;63239.25;;;9.12;100.00
7832;BME280;3961;42.058;25.586;2022-12-07T06:10:14;63226.56;;;9.00;100.00
7832;BME280;3961;42.058;25.586;2022-12-07T06:12:40;63238.91;;;9.14;100.00
7832;BME280;3961;42.058;25.586;2022-12-07T06:15:09;63220.13;;;8.99;100.00
7832;BME280;3961;42.058;25.586;2022-12-07T06:17:35;63230.59;;;9.04;100.00
7832;BME280;3961;42.058;25.586;2022-12-07T06:20:01;63234.31;;;9.09;100.00
7832;BME280;3961;42.058;25.586;2022-12-07T06:22:26;63226.81;;;9.03;100.00
7832;BME280;3961;42.058;25.586;2022-12-07T06:24:52;63233.38;;;9.11;100.00
7832;BME280;3961;42.058;25.586;2022-12-07T06:27:18;63211.81;;;8.90;100.00
7832;BME280;3961;42.058;25.586;2022-12-07T06:29:43;63220.56;;;8.93;100.00
7832;BME280;3961;42.058;25.586;2022-12-07T06:32:09;63198.22;;;8.80;100.00
7832;BME280;3961;42.058;25.586;2022-12-07T06:34:35;63227.72;;;9.01;100.00
7832;BME280;3961;42.058;25.586;2022-12-07T06:37:00;63218.41;;;8.98;100.00
7832;BME280;3961;42.058;25.586;2022-12-07T06:39:27;63225.09;;;9.01;100.00
7832;BME280;3961;42.058;25.586;2022-12-07T06:41:54;63221.28;;;9.00;100.00
7832;BME280;3961;42.058;25.586;2022-12-07T06:44:20;63226.22;;;9.02;100.00
7832;BME280;3961;42.058;25.586;2022-12-07T06:46:47;63236.97;;;9.09;100.00
7832;BME280;3961;42.058;25.586;2022-12-07T06:49:13;63238.66;;;9.11;100.00
7832;BME280;3961;42.058;25.586;2022-12-07T06:51:39;63187.28;;;8.70;100.00
7832;BME280;3961;42.058;25.586;2022-12-07T06:54:09;63219.22;;;9.01;100.00
7832;BME280;3961;42.058;25.586;2022-12-07T06:56:35;63235.09;;;9.13;100.00
7832;BME280;3961;42.058;25.586;2022-12-07T06:59:01;63222.19;;;8.99;100.00
7832;BME280;3961;42.058;25.586;2022-12-07T07:01:26;63233.94;;;9.12;100.00
7832;BME280;3961;42.058;25.586;2022-12-07T07:03:52;63224.16;;;9.03;100.00
7832;BME280;3961;42.058;25.586;2022-12-07T07:06:18;63249.53;;;9.25;100.00
7832;BME280;3961;42.058;25.586;2022-12-07T07:08:43;63355.09;;;10.18;100.00
7832;BME280;3961;42.058;25.586;2022-12-07T07:11:09;63545.91;;;11.81;100.00
7832;BME280;3961;42.058;25.586;2022-12-07T07:13:35;63632.91;;;12.60;100.00
7832;BME280;3961;42.058;25.586;2022-12-07T07:16:01;63580.25;;;12.14;100.00
7832;BME280;3961;42.058;25.586;2022-12-07T07:18:27;63496.97;;;11.40;100.00
7832;BME280;3961;42.058;25.586;2022-12-07T07:20:53;63502.16;;;11.45;100.00
7832;BME280;3961;42.058;25.586;2022-12-07T07:23:21;63455.38;;;11.04;100.00
7832;BME280;3961;42.058;25.586;2022-12-07T07:25:47;63433.97;;;10.85;100.00
7832;BME280;3961;42.058;25.586;2022-12-07T07:28:13;63407.41;;;10.62;100.00
7832;BME280;3961;42.058;25.586;2022-12-07T07:30:39;63366.78;;;10.24;100.00
7832;BME280;3961;42.058;25.586;2022-12-07T07:33:05;63368.75;;;10.28;100.00
7832;BME280;3961;42.058;25.586;2022-12-07T07:35:33;63349.31;;;10.13;100.00
7832;BME280;3961;42.058;25.586;2022-12-07T07:37:59;63347.34;;;10.09;100.00
7832;BME280;3961;42.058;25.586;2022-12-07T07:40:25;63337.56;;;10.00;100.00
7832;BME280;3961;42.058;25.586;2022-12-07T07:42:58;63357.41;;;10.20;100.00
7832;BME280;3961;42.058;25.586;2022-12-07T07:45:25;63378.09;;;10.31;100.00
7832;BME280;3961;42.058;25.586;2022-12-07T07:47:51;63390.66;;;10.47;100.00
7832;BME280;3961;42.058;25.586;2022-12-07T07:50:17;63377.97;;;10.36;100.00
7832;BME280;3961;42.058;25.586;2022-12-07T07:52:43;63397.59;;;10.53;100.00
7832;BME280;3961;42.058;25.586;2022-12-07T07:55:09;63401.41;;;10.54;100.00
7832;BME280;3961;42.058;25.586;2022-12-07T07:57:39;63412.38;;;10.64;100.00
7832;BME280;3961;42.058;25.586;2022-12-07T08:00:08;63415.16;;;10.71;100.00
7832;BME280;3961;42.058;25.586;2022-12-07T08:02:34;63418.63;;;10.74;100.00
7832;BME280;3961;42.058;25.586;2022-12-07T08:05:00;63432.72;;;10.89;100.00
7832;BME280;3961;42.058;25.586;2022-12-07T08:07:27;63617.06;;;12.43;100.00
7832;BME280;3961;42.058;25.586;2022-12-07T08:09:53;63727.31;;;13.42;100.00
7832;BME280;3961;42.058;25.586;2022-12-07T08:12:18;63729.63;;;13.44;100.00
7832;BME280;3961;42.058;25.586;2022-12-07T08:14:44;63829.66;;;14.30;100.00
7832;BME280;3961;42.058;25.586;2022-12-07T08:17:09;64001.41;;;15.85;100.00
7832;BME280;3961;42.058;25.586;2022-12-07T08:19:35;64058.66;;;16.32;100.00
7832;BME280;3961;42.058;25.586;2022-12-07T08:22:01;64118.34;;;16.82;96.92
7832;BME280;3961;42.058;25.586;2022-12-07T08:24:27;64109.63;;;16.74;95.64
7832;BME280;3961;42.058;25.586;2022-12-07T08:26:53;64018.13;;;15.92;97.17
7832;BME280;3961;42.058;25.586;2022-12-07T08:29:19;63988.97;;;15.71;98.47
7832;BME280;3961;42.058;25.586;2022-12-07T08:31:45;64037.19;;;16.13;96.28
7832;BME280;3961;42.058;25.586;2022-12-07T08:34:11;63999.78;;;15.78;99.90
7832;BME280;3961;42.058;25.586;2022-12-07T08:36:37;63981.06;;;15.67;100.00
7832;BME280;3961;42.058;25.586;2022-12-07T08:39:03;64093.22;;;16.65;98.97
7832;BME280;3961;42.058;25.586;2022-12-07T08:41:28;63990.13;;;15.72;95.89
7832;BME280;3961;42.058;25.586;2022-12-07T08:43:54;64126.50;;;16.89;99.78
7832;BME280;3961;42.058;25.586;2022-12-07T08:46:37;64209.66;;;17.62;91.17
7832;BME280;3961;42.058;25.586;2022-12-07T08:49:19;64216.31;;;17.70;91.46
7832;BME280;3961;42.058;25.586;2022-12-07T08:51:45;64238.78;;;17.87;91.36
7832;BME280;3961;42.058;25.586;2022-12-07T08:54:16;64209.09;;;17.61;92.53
7832;BME280;3961;42.058;25.586;2022-12-07T08:56:44;64218.44;;;17.69;90.45
7832;BME280;3961;42.058;25.586;2022-12-07T08:59:12;64170.69;;;17.28;90.47
7832;BME280;3961;42.058;25.586;2022-12-07T09:01:39;64142.53;;;17.01;93.62
7832;BME280;3961;42.058;25.586;2022-12-07T09:04:05;64073.34;;;16.40;93.15
7832;BME280;3961;42.058;25.586;2022-12-07T09:06:31;64001.88;;;15.78;96.34
7832;BME280;3961;42.058;25.586;2022-12-07T09:08:58;63959.31;;;15.45;96.19
7832;BME280;3961;42.058;25.586;2022-12-07T09:11:25;63862.41;;;14.61;100.00
7832;BME280;3961;42.058;25.586;2022-12-07T09:13:51;63756.03;;;13.65;100.00
7832;BME280;3961;42.058;25.586;2022-12-07T09:16:16;63774.59;;;13.82;100.00
7832;BME280;3961;42.058;25.586;2022-12-07T09:18:42;63717.69;;;13.36;100.00
7832;BME280;3961;42.058;25.586;2022-12-07T09:21:08;63685.59;;;13.06;100.00
7832;BME280;3961;42.058;25.586;2022-12-07T09:23:34;63700.75;;;13.15;100.00
7832;BME280;3961;42.058;25.586;2022-12-07T09:26:00;63606.28;;;12.36;100.00
7832;BME280;3961;42.058;25.586;2022-12-07T09:28:26;63617.63;;;12.44;100.00
7832;BME280;3961;42.058;25.586;2022-12-07T09:30:52;63609.75;;;12.39;100.00
7832;BME280;3961;42.058;25.586;2022-12-07T09:33:18;63631.19;;;12.58;100.00
7832;BME280;3961;42.058;25.586;2022-12-07T09:35:47;63632.34;;;12.59;100.00
7832;BME280;3961;42.058;25.586;2022-12-07T09:38:21;63643.91;;;12.69;100.00
7832;BME280;3961;42.058;25.586;2022-12-07T09:40:47;63646.34;;;12.67;100.00
7832;BME280;3961;42.058;25.586;2022-12-07T09:43:31;63633.16;;;12.62;100.00
7832;BME280;3961;42.058;25.586;2022-12-07T09:45:56;63613.47;;;12.45;100.00
7832;BME280;3961;42.058;25.586;2022-12-07T09:48:31;63604.53;;;12.35;100.00
7832;BME280;3961;42.058;25.586;2022-12-07T09:50:59;63610.34;;;12.40;100.00
7832;BME280;3961;42.058;25.586;2022-12-07T09:53:28;63609.19;;;12.39;100.00
7832;BME280;3961;42.058;25.586;2022-12-07T09:55:55;63611.16;;;12.43;100.00
7832;BME280;3961;42.058;25.586;2022-12-07T09:58:27;63624.56;;;12.50;100.00
7832;BME280;3961;42.058;25.586;2022-12-07T10:00:56;63631.53;;;12.56;100.00
7832;BME280;3961;42.058;25.586;2022-12-07T10:03:22;63588.59;;;12.23;100.00
7832;BME280;3961;42.058;25.586;2022-12-07T10:05:51;63586.72;;;12.15;100.00
7832;BME280;3961;42.058;25.586;2022-12-07T10:08:17;63584.88;;;12.18;100.00
7832;BME280;3961;42.058;25.586;2022-12-07T10:10:44;63595.66;;;12.25;100.00
7832;BME280;3961;42.058;25.586;2022-12-07T10:15:59;63588.34;;;12.21;100.00
7832;BME280;3961;42.058;25.586;2022-12-07T10:18:39;63608.03;;;12.38;100.00
7832;BME280;3961;42.058;25.586;2022-12-07T10:21:19;63576.78;;;12.10;100.00
7832;BME280;3961;42.058;25.586;2022-12-07T10:24:05;63594.50;;;12.24;100.00
7832;BME280;3961;42.058;25.586;2022-12-07T10:26:36;63560.59;;;11.96;100.00
7832;BME280;3961;42.058;25.586;2022-12-07T10:29:29;63555.38;;;11.92;100.00
7832;BME280;3961;42.058;25.586;2022-12-07T10:32:01;63547.06;;;11.82;100.00
7832;BME280;3961;42.058;25.586;2022-12-07T10:34:30;63528.88;;;11.64;100.00
7832;BME280;3961;42.058;25.586;2022-12-07T10:42:16;63581.66;;;12.17;100.00
7832;BME280;3961;42.058;25.586;2022-12-07T10:44:42;63609.19;;;12.39;100.00
7832;BME280;3961;42.058;25.586;2022-12-07T11:06:47;63615.56;;;12.44;100.00
7832;BME280;3961;42.058;25.586;2022-12-07T11:18:09;63649.34;;;12.76;100.00
7832;BME280;3961;42.058;25.586;2022-12-07T11:20:59;63677.03;;;12.94;100.00
7832;BME280;3961;42.058;25.586;2022-12-07T11:32:39;63662.78;;;12.84;100.00
7832;BME280;3961;42.058;25.586;2022-12-07T11:36:00;63686.84;;;13.02;100.00
7832;BME280;3961;42.058;25.586;2022-12-07T11:38:08;63701.84;;;13.20;100.00
7832;BME280;3961;42.058;25.586;2022-12-07T11:40:38;63714.69;;;13.27;100.00
7832;BME280;3961;42.058;25.586;2022-12-07T11:43:32;63750.50;;;13.63;100.00
7832;BME280;3961;42.058;25.586;2022-12-07T11:46:14;63776.69;;;13.81;100.00
7832;BME280;3961;42.058;25.586;2022-12-07T11:49:20;63777.16;;;13.86;100.00
7832;BME280;3961;42.058;25.586;2022-12-07T11:51:48;63767.06;;;13.75;100.00
7832;BME280;3961;42.058;25.586;2022-12-07T11:54:21;63752.59;;;13.62;100.00
7832;BME280;3961;42.058;25.586;2022-12-07T11:56:50;63747.38;;;13.58;100.00
7832;BME280;3961;42.058;25.586;2022-12-07T11:59:23;63732.53;;;13.47;100.00
7832;BME280;3961;42.058;25.586;2022-12-07T12:02:38;63705.66;;;13.21;100.00
7832;BME280;3961;42.058;25.586;2022-12-07T12:05:18;63717.13;;;13.36;100.00
7832;BME280;3961;42.058;25.586;2022-12-07T12:08:13;63687.78;;;13.12;100.00
7832;BME280;3961;42.058;25.586;2022-12-07T12:21:26;63729.63;;;13.44;100.00
7832;BME280;3961;42.058;25.586;2022-12-07T12:24:00;63724.66;;;13.42;100.00
7832;BME280;3961;42.058;25.586;2022-12-07T12:26:31;63737.16;;;13.51;100.00
7832;BME280;3961;42.058;25.586;2022-12-07T12:29:01;63740.88;;;13.57;100.00
7832;BME280;3961;42.058;25.586;2022-12-07T12:34:01;63726.97;;;13.44;100.00
7832;BME280;3961;42.058;25.586;2022-12-07T12:39:11;63737.41;;;13.54;100.00
7832;BME280;3961;42.058;25.586;2022-12-07T12:49:43;63709.13;;;13.24;100.00
7832;BME280;3961;42.058;25.586;2022-12-07T12:55:11;63711.69;;;13.29;100.00
7832;BME280;3961;42.058;25.586;2022-12-07T12:57:37;63719.78;;;13.36;100.00
7832;BME280;3961;42.058;25.586;2022-12-07T13:00:23;63714.34;;;13.29;100.00
7832;BME280;3961;42.058;25.586;2022-12-07T13:02:58;63731.72;;;13.44;100.00
7832;BME280;3961;42.058;25.586;2022-12-07T13:05:31;63734.63;;;13.47;100.00
7832;BME280;3961;42.058;25.586;2022-12-07T13:08:10;63712.03;;;13.27;100.00
7832;BME280;3961;42.058;25.586;2022-12-07T13:10:41;63652.69;;;12.72;100.00
7832;BME280;3961;42.058;25.586;2022-12-07T13:18:37;63659.53;;;12.83;100.00
7832;BME280;3961;42.058;25.586;2022-12-07T13:26:22;63670.53;;;12.93;100.00
7832;BME280;3961;42.058;25.586;2022-12-07T13:31:55;63675.53;;;12.95;100.00
7832;BME280;3961;42.058;25.586;2022-12-07T13:37:04;63674.94;;;12.94;100.00
7832;BME280;3961;42.058;25.586;2022-12-07T13:39:34;63640.44;;;12.66;100.00
7832;BME280;3961;42.058;25.586;2022-12-07T13:42:27;63594.16;;;12.26;100.00
7832;BME280;3961;42.058;25.586;2022-12-07T13:44:54;63602.03;;;12.30;100.00
7832;BME280;3961;42.058;25.586;2022-12-07T13:47:41;63595.75;;;12.20;100.00
7832;BME280;3961;42.058;25.586;2022-12-07T13:52:49;63628.41;;;12.51;100.00
7832;BME280;3961;42.058;25.586;2022-12-07T13:55:16;63618.44;;;12.47;100.00
7832;BME280;3961;42.058;25.586;2022-12-07T13:57:47;63622.50;;;12.51;100.00
7832;BME280;3961;42.058;25.586;2022-12-07T14:00:16;63633.72;;;12.63;100.00
7832;BME280;3961;42.058;25.586;2022-12-07T14:03:03;63625.28;;;12.58;100.00
7832;BME280;3961;42.058;25.586;2022-12-07T14:05:31;63624.22;;;12.52;100.00
7832;BME280;3961;42.058;25.586;2022-12-07T14:08:02;63640.44;;;12.66;100.00
7832;BME280;3961;42.058;25.586;2022-12-07T14:12:59;63650.03;;;12.72;100.00
7832;BME280;3961;42.058;25.586;2022-12-07T14:15:33;63644.47;;;12.70;100.00
7832;BME280;3961;42.058;25.586;2022-12-07T14:18:01;63647.38;;;12.72;100.00
7832;BME280;3961;42.058;25.586;2022-12-07T14:20:37;63652.13;;;12.72;100.00
7832;BME280;3961;42.058;25.586;2022-12-07T14:23:04;63646.22;;;12.71;100.00
7832;BME280;3961;42.058;25.586;2022-12-07T14:25:48;63648.53;;;12.73;100.00
7832;BME280;3961;42.058;25.586;2022-12-07T14:28:31;63638.56;;;12.69;100.00
7832;BME280;3961;42.058;25.586;2022-12-07T14:30:58;63645.06;;;12.70;100.00
7832;BME280;3961;42.058;25.586;2022-12-07T14:33:24;63639.41;;;12.61;100.00
7832;BME280;3961;42.058;25.586;2022-12-07T14:35:50;63631.75;;;12.59;100.00
7832;BME280;3961;42.058;25.586;2022-12-07T14:38:20;63641.94;;;12.65;100.00
7832;BME280;3961;42.058;25.586;2022-12-07T14:40:46;63627.94;;;12.58;100.00
7832;BME280;3961;42.058;25.586;2022-12-07T14:43:13;63646.56;;;12.69;100.00
7832;BME280;3961;42.058;25.586;2022-12-07T14:45:40;63641.38;;;12.65;100.00
7832;BME280;3961;42.058;25.586;2022-12-07T14:48:15;63611.50;;;12.41;100.00
7832;BME280;3961;42.058;25.586;2022-12-07T14:50:44;63599.13;;;12.28;100.00
7832;BME280;3961;42.058;25.586;2022-12-07T14:53:15;63624.34;;;12.48;100.00
7832;BME280;3961;42.058;25.586;2022-12-07T14:55:41;63608.94;;;12.36;100.00
7832;BME280;3961;42.058;25.586;2022-12-07T14:58:16;63574.81;;;12.06;100.00
7832;BME280;3961;42.058;25.586;2022-12-07T15:00:43;63573.66;;;12.05;100.00
7832;BME280;3961;42.058;25.586;2022-12-07T15:03:09;63506.78;;;11.49;100.00
7832;BME280;3961;42.058;25.586;2022-12-07T15:05:36;63513.16;;;11.55;100.00
7832;BME280;3961;42.058;25.586;2022-12-07T15:08:02;63511.19;;;11.51;100.00
7832;BME280;3961;42.058;25.586;2022-12-07T15:10:32;63491.19;;;11.35;100.00
7832;BME280;3961;42.058;25.586;2022-12-07T15:12:59;63486.22;;;11.33;100.00
7832;BME280;3961;42.058;25.586;2022-12-07T15:15:49;63466.69;;;11.11;100.00